Wrington, United Kingdom
Current Conditions -  °F | °C
As of 10:50 AM on Sunday 21 Dec 2014 (Local Time) from EGGD Reporting Station
Scattered Clouds Scattered Clouds  
Wind Chill: 39°   Ceiling: Unl
Heat Index: 46°   Visibility: 6mi
Dew Point: 45°   Wind: 20mph
Humidity: 93%   Direction: 240°WSW
Pressure: 30.33"   Gusts: NA
Location:  51.36°N, 2.76°W
Report Text: EGGD 211050Z 24017KT 9999 SCT006 SCT010 08/07 Q1027
Loading
Personal Weather Stations






























Interactive Weather Map New forecast layout! Learn more

10-Day Weather Forecast

Advertisements
Track Severe Weather on mobile